FW9797 Weather Reports


time (UTC)temp
C
wind
direction
speed
KPH
gust
KPH
rain 1hr
cm
rain 24hr
cm
rain mn
cm
humidity
%
barometer
mb
20260503190054 15 276 9.7 24.1 0.00 0.00 0.00 35 1018.0
20260503185549 16 273 12.9 24.1 0.00 0.00 0.00 36 1018.1
20260503185049 15 201 8.0 22.5 0.00 0.00 0.00 35 1018.2
20260503184551 15 240 9.7 22.5 0.00 0.00 0.00 36 1018.1
20260503184049 15 271 12.9 25.7 0.00 0.00 0.00 38 1018.2
20260503183548 16 310 14.5 25.7 0.00 0.00 0.00 36 1018.2
20260503183108 16 284 9.7 25.7 0.00 0.00 0.00 36 1018.2
20260503182548 16 300 6.4 25.7 0.00 0.00 0.00 37 1018.4
20260503182048 15 259 12.9 25.7 0.00 0.00 0.00 36 1018.6
20260503181618 15 285 6.4 20.9 0.00 0.00 0.00 40 1018.5
20260503181050 15 253 11.3 24.1 0.00 0.00 0.00 37 1018.6
20260503180550 15 275 11.3 24.1 0.00 0.00 0.00 37 1018.6
20260503180052 15 288 8.0 22.5 0.00 0.00 0.00 39 1018.7
20260503175548 15 355 9.7 22.5 0.00 0.00 0.00 40 1018.9
20260503175050 15 263 6.4 22.5 0.00 0.00 0.00 41 1018.9
20260503174556 15 305 12.9 22.5 0.00 0.00 0.00 38 1019.1
20260503174049 15 236 8.0 22.5 0.00 0.00 0.00 36 1019.3
20260503173549 15 266 6.4 22.5 0.00 0.00 0.00 35 1019.4
20260503173057 15 290 11.3 22.5 0.00 0.00 0.00 36 1019.6
20260503172550 15 265 6.4 19.3 0.00 0.00 0.00 40 1019.6
20260503172048 15 111 6.4 17.7 0.00 0.00 0.00 38 1019.7
20260503171556 15 257 9.7 17.7 0.00 0.00 0.00 39 1019.8
20260503171051 15 148 4.8 16.1 0.00 0.00 0.00 40 1019.8
20260503170549 15 67 8.0 22.5 0.00 0.00 0.00 39 1019.8
20260503150552 12 281 8.0 17.7 0.00 0.00 0.00 43 1020.6
20260503131048 6 254 4.8 12.9 0.00 0.00 0.00 87 1020.9
20260503130551 6 284 4.8 12.9 0.00 0.00 0.00 89 1020.9
20260503110550 -2 0 0.0 0.0 0.00 0.00 0.00 92 1020.1
20260503100107 -2 0 0.0 0.0 0.00 0.00 0.00 92 1019.6
20260503090110 -2 0 0.0 0.0 0.00 0.00 0.00 91 1019.6
20260503081557 -1 300 1.6 3.2 0.00 0.00 0.00 91 1019.4
20260503081053 -1 300 1.6 3.2 0.00 0.00 0.00 91 1019.4
20260503080556 -1 300 1.6 3.2 0.00 0.00 0.00 91 1019.5
20260503072553 -1 0 0.0 0.0 0.00 0.00 0.00 90 1019.3
20260503072051 -1 0 0.0 0.0 0.00 0.00 0.00 90 1019.3
20260503071602 -1 0 0.0 0.0 0.00 0.00 0.00 90 1019.3
20260503071051 -1 0 0.0 0.0 0.00 0.00 0.00 90 1019.3
20260503070551 -1 0 0.0 0.0 0.00 0.00 0.00 90 1019.2
20260503070111 -1 0 0.0 0.0 0.00 0.00 0.00 90 1019.2
20260503060120 -1 0 0.0 0.0 0.00 0.00 0.00 89 1019.3
20260503055054 0 0 0.0 1.6 0.00 0.00 0.00 89 1019.4
20260503054559 0 0 0.0 3.2 0.00 0.00 0.00 89 1019.3
20260503054051 0 300 0.0 3.2 0.00 0.00 0.00 89 1019.3
20260503053552 0 300 0.0 3.2 0.00 0.00 0.00 88 1019.4
20260503053053 0 300 0.0 1.6 0.00 0.00 0.00 88 1019.5
20260503052552 0 0 0.0 1.6 0.00 0.00 0.00 88 1019.5
20260503052053 0 300 0.0 1.6 0.00 0.00 0.00 88 1019.5
20260503051553 0 0 0.0 1.6 0.00 0.00 0.00 88 1019.5
20260503051048 0 0 0.0 1.6 0.00 0.00 0.00 88 1019.6
20260503050549 0 0 0.0 1.6 0.00 0.00 0.00 88 1019.5
20260503050054 0 0 0.0 0.0 0.00 0.00 0.00 88 1019.5
20260503045555 0 0 0.0 1.6 0.00 0.00 0.00 87 1019.6
20260503045052 0 0 0.0 1.6 0.00 0.00 0.00 87 1019.6
20260503044551 0 300 0.0 1.6 0.00 0.00 0.00 87 1019.6
20260503044056 0 0 0.0 1.6 0.00 0.00 0.00 87 1019.6
20260503043553 0 0 0.0 1.6 0.00 0.00 0.00 86 1019.7
20260503043052 0 0 0.0 1.6 0.00 0.00 0.00 86 1019.7
20260503042552 0 0 0.0 3.2 0.00 0.00 0.00 86 1019.4
20260503042052 0 0 0.0 3.2 0.00 0.00 0.00 86 1019.3
20260503041557 1 0 0.0 0.0 0.00 0.00 0.00 85 1019.2
20260503041051 1 0 0.0 0.0 0.00 0.00 0.00 85 1019.3
20260503040551 1 0 0.0 0.0 0.00 0.00 0.00 84 1019.3
20260503040054 1 0 0.0 0.0 0.00 0.00 0.00 84 1019.3
20260503035548 1 0 0.0 0.0 0.00 0.00 0.00 84 1019.3
20260503035052 1 0 0.0 0.0 0.00 0.00 0.00 84 1019.3
20260503034609 1 0 0.0 0.0 0.00 0.00 0.00 83 1019.5
20260503034054 1 0 0.0 0.0 0.00 0.00 0.00 82 1019.5
20260503033557 1 0 0.0 0.0 0.00 0.00 0.00 82 1019.4
20260503033059 1 0 0.0 0.0 0.00 0.00 0.00 82 1019.3
20260503032550 1 0 0.0 0.0 0.00 0.00 0.00 81 1019.3
20260503032052 2 0 0.0 0.0 0.00 0.00 0.00 82 1019.3
20260503031557 2 0 0.0 0.0 0.00 0.00 0.00 82 1019.2
20260503031048 2 0 0.0 1.6 0.00 0.00 0.00 81 1019.1
20260503030549 2 0 0.0 1.6 0.00 0.00 0.00 81 1019.2
20260503030057 2 0 0.0 0.0 0.00 0.00 0.00 80 1019.2
20260503025548 2 0 0.0 0.0 0.00 0.00 0.00 79 1019.2
20260503025049 2 0 0.0 0.0 0.00 0.00 0.00 79 1019.2
20260503024552 3 0 0.0 0.0 0.00 0.00 0.00 79 1019.0
20260503024048 3 0 0.0 0.0 0.00 0.00 0.00 79 1019.0
20260503023549 3 0 0.0 0.0 0.00 0.00 0.00 78 1018.9
20260503023059 3 0 0.0 0.0 0.00 0.00 0.00 77 1018.8
20260503022549 3 0 0.0 0.0 0.00 0.00 0.00 77 1018.8
20260503022052 3 0 0.0 0.0 0.00 0.00 0.00 76 1018.7
20260503021553 4 0 0.0 0.0 0.00 0.00 0.00 76 1018.6
20260503021052 4 0 0.0 0.0 0.00 0.00 0.00 75 1018.5
20260503020549 5 0 0.0 0.0 0.00 0.00 0.00 75 1018.3
20260503020054 5 0 0.0 0.0 0.00 0.00 0.00 75 1018.3
20260503015552 5 0 0.0 0.0 0.00 0.00 0.00 75 1018.2
20260503015051 5 0 0.0 0.0 0.00 0.00 0.00 75 1018.2
20260503014550 5 0 0.0 1.6 0.00 0.00 0.00 75 1018.2
20260503014054 5 0 0.0 3.2 0.00 0.00 0.00 74 1018.2
20260503013555 6 0 0.0 3.2 0.00 0.00 0.00 73 1018.0
20260503013058 6 0 0.0 0.0 0.00 0.00 0.00 71 1018.0
20260503012553 6 0 0.0 0.0 0.00 0.00 0.00 70 1018.0
20260503012052 6 0 0.0 0.0 0.00 0.00 0.00 69 1017.9
20260503011606 7 0 0.0 0.0 0.00 0.00 0.00 68 1017.9
20260503011049 7 0 0.0 0.0 0.00 0.00 0.00 67 1017.8
20260503010552 7 0 0.0 0.0 0.00 0.00 0.00 66 1017.7
20260503010120 7 0 0.0 0.0 0.00 0.00 0.00 65 1017.7
20260503005550 8 0 0.0 0.0 0.00 0.00 0.00 63 1017.6
20260503005054 8 0 0.0 1.6 0.00 0.00 0.00 62 1017.5
20260503004552 8 0 0.0 1.6 0.00 0.00 0.00 61 1017.4
20260503004054 9 0 0.0 1.6 0.00 0.00 0.00 60 1017.3
20260503003551 9 0 0.0 4.8 0.00 0.00 0.00 58 1017.2
20260503003053 10 0 0.0 4.8 0.00 0.00 0.00 56 1017.2
20260503002549 10 0 1.6 4.8 0.00 0.00 0.00 52 1017.0
20260503002050 10 263 0.0 4.8 0.00 0.00 0.00 53 1016.9
20260503001611 10 284 0.0 3.2 0.00 0.00 0.00 55 1016.9
20260503001053 10 0 0.0 9.7 0.00 0.00 0.00 52 1016.8
20260503000550 11 0 1.6 9.7 0.00 0.00 0.00 47 1016.8
20260503000113 11 242 1.6 6.4 0.00 0.00 0.00 44 1016.7
20260502235550 11 273 1.6 9.7 0.00 0.00 0.00 44 1016.6
20260502235050 11 298 1.6 9.7 0.00 0.00 0.00 43 1016.6
20260502234607 11 259 3.2 9.7 0.00 0.00 0.00 43 1016.6
20260502234050 11 242 1.6 8.0 0.00 0.00 0.00 44 1016.6
20260502233552 11 267 3.2 8.0 0.00 0.00 0.00 46 1016.5
20260502233053 11 244 1.6 6.4 0.00 0.00 0.00 51 1016.6
20260502232551 11 0 1.6 6.4 0.00 0.00 0.00 47 1016.6
20260502232051 11 261 1.6 12.9 0.00 0.00 0.00 49 1016.6
20260502231554 11 238 1.6 12.9 0.00 0.00 0.00 48 1016.6
20260502231052 11 277 3.2 6.4 0.00 0.00 0.00 47 1016.7
20260502230550 11 0 0.0 6.4 0.00 0.00 0.00 50 1016.6
20260502230052 11 257 1.6 6.4 0.00 0.00 0.00 47 1016.6
20260502225554 11 235 3.2 6.4 0.00 0.00 0.00 49 1016.6
20260502225052 11 285 1.6 11.3 0.00 0.00 0.00 47 1016.6
20260502224600 11 5 3.2 12.9 0.00 0.00 0.00 47 1016.5
20260502224049 11 229 4.8 12.9 0.00 0.00 0.00 46 1016.5
20260502223555 11 225 3.2 11.3 0.00 0.00 0.00 47 1016.5
20260502223052 12 263 3.2 14.5 0.00 0.00 0.00 45 1016.5
20260502222555 12 223 6.4 16.1 0.00 0.00 0.00 43 1016.4
20260502222051 12 236 6.4 19.3 0.00 0.00 0.00 43 1016.4
20260502221554 12 239 11.3 19.3 0.00 0.00 0.00 42 1016.3
20260502221048 12 348 4.8 19.3 0.00 0.00 0.00 44 1016.4
20260502220552 12 293 9.7 19.3 0.00 0.00 0.00 44 1016.4
20260502220053 12 193 8.0 17.7 0.00 0.00 0.00 44 1016.4
20260502215554 12 355 6.4 16.1 0.00 0.00 0.00 44 1016.4
20260502215048 12 304 8.0 16.1 0.00 0.00 0.00 45 1016.4
20260502214613 12 315 3.2 12.9 0.00 0.00 0.00 47 1016.3
20260502214052 12 292 4.8 16.1 0.00 0.00 0.00 46 1016.4
20260502213552 12 206 3.2 17.7 0.00 0.00 0.00 47 1016.3
20260502213054 12 323 4.8 22.5 0.00 0.00 0.00 46 1016.3
20260502212552 12 222 11.3 22.5 0.00 0.00 0.00 45 1016.3
20260502212052 12 230 4.8 17.7 0.00 0.00 0.00 50 1016.3
20260502211603 11 230 4.8 14.5 0.00 0.00 0.00 52 1016.3
20260502211051 11 240 3.2 14.5 0.00 0.00 0.00 49 1016.4
20260502210552 11 262 4.8 14.5 0.00 0.00 0.00 51 1016.4
20260502210055 11 244 6.4 14.5 0.00 0.00 0.00 51 1016.4
20260502205552 11 229 4.8 14.5 0.00 0.00 0.00 50 1016.4
20260502205053 11 238 4.8 16.1 0.00 0.00 0.00 49 1016.4
20260502204554 11 212 8.0 16.1 0.00 0.00 0.00 50 1016.5
20260502204051 11 279 6.4 19.3 0.00 0.00 0.00 49 1016.4
20260502203548 11 231 6.4 19.3 0.00 0.00 0.00 50 1016.5
20260502203106 11 46 4.8 17.7 0.00 0.00 0.00 48 1016.5
20260502202551 11 266 8.0 17.7 0.00 0.00 0.00 49 1016.6
20260502202053 11 262 4.8 14.5 0.00 0.00 0.00 49 1016.6
20260502201611 11 342 4.8 17.7 0.00 0.00 0.00 48 1016.7
20260502201052 11 240 8.0 17.7 0.00 0.00 0.00 49 1016.6
20260502200552 11 254 6.4 20.9 0.00 0.00 0.00 49 1016.7
20260502200055 11 272 9.7 20.9 0.00 0.00 0.00 47 1016.7
20260502195551 11 219 8.0 17.7 0.00 0.00 0.00 48 1016.7
20260502195051 11 277 6.4 14.5 0.00 0.00 0.00 49 1016.8
20260502194558 11 243 6.4 14.5 0.00 0.00 0.00 50 1016.9
20260502194052 11 217 3.2 12.9 0.00 0.00 0.00 51 1016.8
20260502193552 11 281 4.8 12.9 0.00 0.00 0.00 49 1017.0
20260502193113 11 302 3.2 12.9 0.00 0.00 0.00 51 1017.0
20260502192552 11 288 4.8 12.9 0.00 0.00 0.00 51 1017.0
20260502192051 11 253 4.8 12.9 0.00 0.00 0.00 50 1017.1
20260502191557 12 259 4.8 12.9 0.00 0.00 0.00 49 1017.0
20260502191051 12 311 3.2 8.0 0.00 0.00 0.00 49 1017.1
20260502190551 12 142 1.6 14.5 0.00 0.00 0.00 49 1017.1